Terminal Aerodrome Forecast
Issued by NWS

Home | Current Version | Previous Version | Text Only | Print | Product List | Glossary On
Versions: 1 2 3 4 5 6 7 8 9 10 11 12 13 14 15 16 17 18 19 20 21
000
FTAK31 PANC 011121
TAFADL
TAF
PADL 011121Z 0112/0212 12020G30KT P6SM -RA SCT025 OVC060
      WS020/13055KT
     FM011400 11024G34KT 3SM -RA BR SCT008 OVC015 WS020/13060KT
     FM012000 08022G30KT 4SM -RA BR OVC015
     FM020300 11012G20KT 3SM -SHRA BR BKN008 OVC012
     FM020500 21012KT 3SM -SHRA BR BKN005 OVC012
     FM020800 26010KT 5SM -SHRA BR BKN005 OVC012=

USA.gov is the U.S. government's official web portal to all federal, state and local government web resources and services.